createdAt,value
2024-04-25T00:00:53.180Z,3
2024-04-25T00:02:36.859Z,3
2024-04-25T00:04:20.557Z,3
2024-04-25T00:06:04.259Z,3
2024-04-25T00:07:47.963Z,2
2024-04-25T00:09:31.657Z,2
2024-04-25T00:11:15.370Z,3
2024-04-25T00:12:59.077Z,3
2024-04-25T00:14:42.782Z,3
2024-04-25T00:18:10.180Z,2
2024-04-25T00:19:53.882Z,3
2024-04-25T00:21:37.579Z,3
2024-04-25T00:23:21.293Z,3
2024-04-25T00:25:04.977Z,3
2024-04-25T00:26:48.735Z,3
2024-04-25T00:28:32.389Z,2
2024-04-25T00:30:16.094Z,3
2024-04-25T00:31:59.794Z,3
2024-04-25T00:33:43.497Z,3
2024-04-25T00:35:27.205Z,2
2024-04-25T00:37:10.901Z,3
2024-04-25T00:38:54.596Z,3
2024-04-25T00:40:38.301Z,2
2024-04-25T00:42:22.012Z,3
2024-04-25T00:44:05.697Z,2
2024-04-25T00:45:49.417Z,3
2024-04-25T00:47:33.185Z,3
2024-04-25T00:49:16.828Z,2
2024-04-25T00:51:00.533Z,1
2024-04-25T00:52:44.238Z,2
2024-04-25T00:54:27.937Z,2
2024-04-25T00:56:11.639Z,3
2024-04-25T00:57:55.348Z,3
2024-04-25T00:59:39.032Z,1
2024-04-25T01:01:22.735Z,2
2024-04-25T01:03:06.439Z,2
2024-04-25T01:04:50.136Z,2
2024-04-25T01:06:33.894Z,3
2024-04-25T01:08:17.557Z,2
2024-04-25T01:10:01.251Z,3
2024-04-25T01:11:44.973Z,3
2024-04-25T01:13:28.660Z,2
2024-04-25T01:15:12.354Z,4
2024-04-25T01:16:56.059Z,3
2024-04-25T01:18:39.752Z,3
2024-04-25T01:20:23.475Z,2
2024-04-25T01:22:07.171Z,2
2024-04-25T01:23:50.874Z,3
2024-04-25T01:25:34.568Z,2
2024-04-25T01:27:18.305Z,2
2024-04-25T01:29:02.059Z,2
2024-04-25T01:30:46.239Z,2
2024-04-25T01:32:29.380Z,3
2024-04-25T01:34:13.083Z,2
2024-04-25T01:35:56.799Z,2
2024-04-25T01:37:40.496Z,2
2024-04-25T01:39:24.188Z,2
2024-04-25T01:41:07.889Z,3
2024-04-25T01:42:51.583Z,3
2024-04-25T01:44:35.296Z,2
2024-04-25T01:46:19.089Z,3
2024-04-25T01:49:46.404Z,2
2024-04-25T01:51:30.109Z,3
2024-04-25T01:53:13.816Z,2
2024-04-25T01:54:57.515Z,2
2024-04-25T01:56:41.211Z,3
2024-04-25T01:58:24.928Z,2
2024-04-25T02:00:08.641Z,2
2024-04-25T02:01:52.324Z,3
2024-04-25T02:03:36.027Z,2
2024-04-25T02:05:19.735Z,3
2024-04-25T02:07:03.441Z,3
2024-04-25T02:08:47.153Z,3
2024-04-25T02:10:30.838Z,3
2024-04-25T02:12:14.530Z,2
2024-04-25T02:13:58.242Z,3
2024-04-25T02:15:41.947Z,3
2024-04-25T02:17:25.639Z,2
2024-04-25T02:19:09.352Z,3
2024-04-25T02:20:53.044Z,3
2024-04-25T02:22:36.755Z,4
2024-04-25T02:24:20.457Z,2
2024-04-25T02:26:04.170Z,2
2024-04-25T02:27:47.866Z,3
2024-04-25T02:29:31.571Z,2
2024-04-25T02:31:15.282Z,3
2024-04-25T02:32:58.983Z,2
2024-04-25T02:34:42.671Z,2
2024-04-25T02:36:26.394Z,2
2024-04-25T02:38:10.078Z,2
2024-04-25T02:39:53.829Z,3
2024-04-25T02:41:37.482Z,3
2024-04-25T02:43:21.201Z,3
2024-04-25T02:45:04.887Z,2
2024-04-25T02:46:48.596Z,3
2024-04-25T02:48:32.311Z,2
2024-04-25T02:50:16.020Z,3
2024-04-25T02:51:59.713Z,2
2024-04-25T02:53:43.418Z,2
2024-04-25T02:55:27.116Z,2
2024-04-25T02:57:10.812Z,2
2024-04-25T02:58:54.514Z,2
2024-04-25T03:00:38.220Z,3
2024-04-25T03:02:21.915Z,2
2024-04-25T03:04:05.629Z,2
2024-04-25T03:05:49.325Z,3
2024-04-25T03:07:33.039Z,2
2024-04-25T03:09:16.743Z,2
2024-04-25T03:11:00.431Z,3
2024-04-25T03:12:44.145Z,2
2024-04-25T03:14:27.835Z,3
2024-04-25T03:16:11.801Z,2
2024-04-25T03:17:55.238Z,2
2024-04-25T03:19:38.952Z,2
2024-04-25T03:21:22.661Z,3
2024-04-25T03:23:06.356Z,3
2024-04-25T03:24:50.056Z,3
2024-04-25T03:26:33.746Z,3
2024-04-25T03:28:17.467Z,3
2024-04-25T03:30:01.165Z,3
2024-04-25T03:31:44.857Z,3
2024-04-25T03:33:28.573Z,3
2024-04-25T03:35:12.269Z,2
2024-04-25T03:36:55.970Z,3
2024-04-25T03:38:39.665Z,3
2024-04-25T03:40:23.382Z,2
2024-04-25T03:42:07.074Z,3
2024-04-25T03:43:50.774Z,4
2024-04-25T03:45:34.473Z,3
2024-04-25T03:47:18.184Z,4
2024-04-25T03:49:01.889Z,3
2024-04-25T03:50:45.585Z,4
2024-04-25T03:52:29.305Z,4
2024-04-25T03:54:13.004Z,5
2024-04-25T03:55:56.717Z,5
2024-04-25T03:57:40.399Z,5
2024-04-25T03:59:24.109Z,6
2024-04-25T04:02:51.507Z,7
2024-04-25T04:04:35.213Z,7
2024-04-25T04:06:19.068Z,8
2024-04-25T04:08:03.052Z,9
2024-04-25T04:09:46.322Z,10
2024-04-25T04:11:30.026Z,11
2024-04-25T04:13:13.725Z,12
2024-04-25T04:14:57.437Z,14
2024-04-25T04:16:41.117Z,15
2024-04-25T04:18:24.841Z,14
2024-04-25T04:20:08.554Z,14
2024-04-25T04:21:52.241Z,15
2024-04-25T04:23:35.942Z,18
2024-04-25T04:25:19.651Z,21
2024-04-25T04:27:03.351Z,24
2024-04-25T04:28:47.051Z,27
2024-04-25T04:30:30.764Z,29
2024-04-25T04:32:14.446Z,32
2024-04-25T04:33:58.164Z,34
2024-04-25T04:35:41.864Z,35
2024-04-25T04:37:25.550Z,36
2024-04-25T04:39:09.268Z,41
2024-04-25T04:40:53.023Z,42
2024-04-25T04:42:37.184Z,45
2024-04-25T04:44:20.377Z,46
2024-04-25T04:46:04.074Z,48
2024-04-25T04:47:47.775Z,52
2024-04-25T04:49:31.519Z,56
2024-04-25T04:51:15.169Z,62
2024-04-25T04:52:58.884Z,67
2024-04-25T04:54:42.590Z,74
2024-04-25T04:56:26.303Z,83
2024-04-25T04:58:09.995Z,93
2024-04-25T04:59:53.695Z,101
2024-04-25T05:01:37.400Z,114
2024-04-25T05:03:21.102Z,128
2024-04-25T05:06:48.568Z,141
2024-04-25T05:08:32.211Z,150
2024-04-25T05:10:16.153Z,161
2024-04-25T05:11:59.613Z,168
2024-04-25T05:13:43.320Z,176
2024-04-25T05:15:27.028Z,179
2024-04-25T05:17:10.727Z,186
2024-04-25T05:18:54.427Z,195
2024-04-25T05:20:38.155Z,192
2024-04-25T05:22:21.837Z,193
2024-04-25T05:24:05.537Z,203
2024-04-25T05:25:49.239Z,211
2024-04-25T05:27:32.938Z,206
2024-04-25T05:29:16.652Z,206
2024-04-25T05:31:00.358Z,207
2024-04-25T05:32:44.046Z,202
2024-04-25T05:34:27.765Z,204
2024-04-25T05:36:11.458Z,222
2024-04-25T05:37:55.176Z,212
2024-04-25T05:39:38.860Z,207
2024-04-25T05:41:22.569Z,207
2024-04-25T05:43:06.270Z,194
2024-04-25T05:44:49.978Z,197
2024-04-25T05:46:33.667Z,209
2024-04-25T05:50:01.077Z,252
2024-04-25T05:51:44.778Z,293
2024-04-25T05:55:12.179Z,354
2024-04-25T05:56:55.919Z,361
2024-04-25T05:58:39.606Z,359
2024-04-25T06:00:23.290Z,362
2024-04-25T06:02:07.001Z,355
2024-04-25T06:03:50.692Z,356
2024-04-25T06:05:34.407Z,364
2024-04-25T06:07:18.103Z,353
2024-04-25T06:09:01.810Z,343
2024-04-25T06:10:45.535Z,329
2024-04-25T06:12:29.220Z,320
2024-04-25T06:14:12.920Z,317
2024-04-25T06:15:56.614Z,326
2024-04-25T06:17:40.326Z,350
2024-04-25T06:19:24.009Z,388
2024-04-25T06:21:07.730Z,433
2024-04-25T06:22:51.431Z,426
2024-04-25T06:24:35.119Z,450
2024-04-25T06:26:18.866Z,476
2024-04-25T06:29:46.248Z,554
2024-04-25T06:31:29.951Z,621
2024-04-25T06:33:13.623Z,654
2024-04-25T06:34:57.337Z,677
2024-04-25T06:36:41.062Z,687
2024-04-25T06:40:08.543Z,694
2024-04-25T06:41:52.148Z,736
2024-04-25T06:43:35.855Z,735
2024-04-25T06:45:19.539Z,736
2024-04-25T06:47:03.024Z,735
2024-04-25T06:48:46.644Z,737
2024-04-25T06:50:30.359Z,726
2024-04-25T06:52:14.052Z,736
2024-04-25T06:53:57.754Z,735
2024-04-25T06:55:41.463Z,735
2024-04-25T06:57:25.163Z,737
2024-04-25T06:59:08.931Z,736
2024-04-25T07:00:52.571Z,735
2024-04-25T07:02:36.272Z,736
2024-04-25T07:04:20.018Z,735
2024-04-25T07:06:03.674Z,737
2024-04-25T07:07:47.378Z,736
2024-04-25T07:09:31.072Z,735
2024-04-25T07:11:14.773Z,735
2024-04-25T07:12:58.492Z,736
2024-04-25T07:14:42.186Z,735
2024-04-25T07:16:25.887Z,736
2024-04-25T07:18:09.587Z,735
2024-04-25T07:19:53.290Z,736
2024-04-25T07:21:37.274Z,736
2024-04-25T07:23:20.736Z,727
2024-04-25T07:25:04.438Z,736
2024-04-25T07:26:48.107Z,736
2024-04-25T07:28:31.798Z,736
2024-04-25T07:30:15.502Z,736
2024-04-25T07:31:59.223Z,737
2024-04-25T07:33:43.024Z,736
2024-04-25T07:35:26.616Z,736
2024-04-25T07:37:10.320Z,736
2024-04-25T07:38:54.018Z,737
2024-04-25T07:40:37.725Z,735
2024-04-25T07:42:21.417Z,735
2024-04-25T07:44:05.134Z,735
2024-04-25T07:45:48.909Z,737
2024-04-25T07:47:32.542Z,737
2024-04-25T07:49:16.230Z,737
2024-04-25T07:50:59.935Z,736
2024-04-25T07:54:27.344Z,737
2024-04-25T07:56:11.057Z,728
2024-04-25T07:57:54.760Z,736
2024-04-25T07:59:38.464Z,736
2024-04-25T08:01:22.147Z,736
2024-04-25T08:03:05.862Z,736
2024-04-25T08:04:49.568Z,737
2024-04-25T08:06:33.272Z,736
2024-04-25T08:08:16.965Z,736
2024-04-25T08:10:00.678Z,726
2024-04-25T08:11:44.369Z,736
2024-04-25T08:13:28.070Z,736
2024-04-25T08:15:11.778Z,736
2024-04-25T08:16:55.476Z,736
2024-04-25T08:18:39.196Z,736
2024-04-25T08:20:22.891Z,736
2024-04-25T08:22:06.596Z,736
2024-04-25T08:23:50.298Z,726
2024-04-25T08:25:33.983Z,735
2024-04-25T08:27:17.700Z,736
2024-04-25T08:29:01.394Z,736
2024-04-25T08:30:45.114Z,736
2024-04-25T08:32:28.804Z,736
2024-04-25T08:34:12.501Z,735
2024-04-25T08:35:56.204Z,737
2024-04-25T08:37:39.916Z,736
2024-04-25T08:39:23.605Z,736
2024-04-25T08:41:07.356Z,736
2024-04-25T08:42:51.032Z,736
2024-04-25T08:44:34.721Z,737
2024-04-25T08:46:18.434Z,736
2024-04-25T08:48:02.130Z,736
2024-04-25T08:49:45.836Z,735
2024-04-25T08:51:29.539Z,736
2024-04-25T08:53:13.232Z,737
2024-04-25T08:54:56.931Z,737
2024-04-25T08:56:40.635Z,728
2024-04-25T08:58:24.330Z,735
2024-04-25T09:00:08.040Z,736
2024-04-25T09:01:51.872Z,737
2024-04-25T09:03:35.457Z,736
2024-04-25T09:05:19.163Z,738
2024-04-25T09:07:02.853Z,736
2024-04-25T09:08:46.584Z,736
2024-04-25T09:10:30.277Z,736
2024-04-25T09:12:13.955Z,736
2024-04-25T09:13:57.662Z,736
2024-04-25T09:15:41.380Z,734
2024-04-25T09:17:25.063Z,737
2024-04-25T09:19:08.871Z,737
2024-04-25T09:20:52.479Z,736
2024-04-25T09:22:36.176Z,735
2024-04-25T09:24:19.880Z,737
2024-04-25T09:26:03.582Z,737
2024-04-25T09:27:47.288Z,736
2024-04-25T09:29:30.998Z,726
2024-04-25T09:31:14.692Z,736
2024-04-25T09:32:58.405Z,737
2024-04-25T09:34:42.100Z,737
2024-04-25T09:36:25.857Z,736
2024-04-25T09:38:09.494Z,736
2024-04-25T09:39:53.204Z,736
2024-04-25T09:41:36.904Z,737
2024-04-25T09:43:20.628Z,736
2024-04-25T09:45:04.320Z,735
2024-04-25T09:46:48.029Z,736
2024-04-25T09:48:31.734Z,736
2024-04-25T09:50:15.431Z,737
2024-04-25T09:51:59.130Z,736
2024-04-25T09:53:42.827Z,735
2024-04-25T09:55:26.540Z,735
2024-04-25T09:57:10.232Z,736
2024-04-25T09:58:53.948Z,737
2024-04-25T10:00:37.638Z,736
2024-04-25T10:02:21.341Z,736
2024-04-25T10:04:05.055Z,735
2024-04-25T10:05:48.754Z,736
2024-04-25T10:07:32.465Z,737
2024-04-25T10:09:16.155Z,737
2024-04-25T10:10:59.852Z,736
2024-04-25T10:12:43.568Z,736
2024-04-25T10:14:27.247Z,737
2024-04-25T10:16:10.964Z,727
2024-04-25T10:17:54.666Z,736
2024-04-25T10:19:38.378Z,736
2024-04-25T10:21:22.089Z,736
2024-04-25T10:23:05.762Z,737
2024-04-25T10:24:49.479Z,737
2024-04-25T10:26:33.184Z,736
2024-04-25T10:28:16.876Z,736
2024-04-25T10:30:00.585Z,736
2024-04-25T10:31:44.278Z,737
2024-04-25T10:33:27.987Z,737
2024-04-25T10:35:11.686Z,728
2024-04-25T10:36:55.386Z,736
2024-04-25T10:38:39.088Z,736
2024-04-25T10:40:22.783Z,737
2024-04-25T10:42:06.494Z,736
2024-04-25T10:43:50.205Z,736
2024-04-25T10:45:33.919Z,737
2024-04-25T10:47:17.603Z,736
2024-04-25T10:49:01.312Z,736
2024-04-25T10:50:45.001Z,737
2024-04-25T10:52:28.712Z,735
2024-04-25T10:54:12.419Z,735
2024-04-25T10:55:56.109Z,736
2024-04-25T10:57:39.822Z,736
2024-04-25T10:59:23.526Z,737
2024-04-25T11:01:07.243Z,736
2024-04-25T11:02:50.932Z,736
2024-04-25T11:04:34.638Z,737
2024-04-25T11:06:18.348Z,737
2024-04-25T11:08:02.042Z,736
2024-04-25T11:11:29.507Z,735
2024-04-25T11:13:13.146Z,736
2024-04-25T11:14:56.839Z,737
2024-04-25T11:16:40.545Z,737
2024-04-25T11:18:24.248Z,736
2024-04-25T11:20:07.941Z,736
2024-04-25T11:21:51.692Z,737
2024-04-25T11:23:35.588Z,737
2024-04-25T11:25:19.155Z,737
2024-04-25T11:27:03.012Z,728
2024-04-25T11:28:46.639Z,736
2024-04-25T11:30:30.415Z,737
2024-04-25T11:32:14.029Z,736
2024-04-25T11:33:57.751Z,736
2024-04-25T11:35:41.607Z,736
2024-04-25T11:37:25.116Z,736
2024-04-25T11:39:08.743Z,737
2024-04-25T11:40:52.411Z,737
2024-04-25T11:42:36.103Z,737
2024-04-25T11:44:19.789Z,736
2024-04-25T11:46:03.485Z,727
2024-04-25T11:47:47.184Z,737
2024-04-25T11:49:30.908Z,737
2024-04-25T11:51:14.662Z,737
2024-04-25T11:52:58.293Z,735
2024-04-25T11:54:42.001Z,736
2024-04-25T11:56:25.712Z,737
2024-04-25T11:58:09.419Z,737
2024-04-25T11:59:53.123Z,731
2024-04-25T12:01:36.806Z,736
2024-04-25T12:03:20.532Z,736
2024-04-25T12:05:04.211Z,737
2024-04-25T12:06:47.923Z,737
2024-04-25T12:08:31.623Z,736
2024-04-25T12:10:15.437Z,737
2024-04-25T12:11:59.042Z,737
2024-04-25T12:13:42.737Z,735
2024-04-25T12:15:26.430Z,736
2024-04-25T12:17:10.142Z,737
2024-04-25T12:18:53.842Z,736
2024-04-25T12:20:37.537Z,736
2024-04-25T12:22:21.293Z,737
2024-04-25T12:24:04.949Z,737
2024-04-25T12:25:48.665Z,736
2024-04-25T12:27:32.370Z,736
2024-04-25T12:29:16.033Z,737
2024-04-25T12:30:59.759Z,737
2024-04-25T12:32:43.464Z,736
2024-04-25T12:34:27.208Z,736
2024-04-25T12:36:10.875Z,737
2024-04-25T12:37:54.571Z,737
2024-04-25T12:39:38.271Z,737
2024-04-25T12:41:22.039Z,737
2024-04-25T12:43:05.673Z,736
2024-04-25T12:44:49.374Z,736
2024-04-25T12:46:33.079Z,729
2024-04-25T12:48:17.142Z,737
2024-04-25T12:50:00.495Z,736
2024-04-25T12:51:44.185Z,736
2024-04-25T12:53:27.880Z,736
2024-04-25T12:55:11.701Z,737
2024-04-25T12:56:55.281Z,737
2024-04-25T12:58:38.987Z,737
2024-04-25T13:00:22.697Z,727
2024-04-25T13:02:06.406Z,736
2024-04-25T13:03:50.113Z,737
2024-04-25T13:05:33.805Z,737
2024-04-25T13:07:17.510Z,737
2024-04-25T13:09:01.241Z,736
2024-04-25T13:10:44.906Z,736
2024-04-25T13:12:28.657Z,737
2024-04-25T13:14:12.314Z,727
2024-04-25T13:15:56.019Z,736
2024-04-25T13:17:39.786Z,736
2024-04-25T13:19:23.426Z,737
2024-04-25T13:21:07.128Z,736
2024-04-25T13:22:50.837Z,737
2024-04-25T13:24:34.528Z,736
2024-04-25T13:26:18.230Z,736
2024-04-25T13:28:01.946Z,733
2024-04-25T13:29:45.630Z,737
2024-04-25T13:31:29.363Z,737
2024-04-25T13:33:13.044Z,737
2024-04-25T13:34:56.771Z,736
2024-04-25T13:36:40.440Z,737
2024-04-25T13:38:24.157Z,737
2024-04-25T13:40:07.856Z,737
2024-04-25T13:41:51.562Z,735
2024-04-25T13:43:35.255Z,736
2024-04-25T13:45:18.949Z,737
2024-04-25T13:47:02.651Z,737
2024-04-25T13:48:46.359Z,737
2024-04-25T13:50:30.080Z,737
2024-04-25T13:52:13.767Z,736
2024-04-25T13:53:57.473Z,737
2024-04-25T13:55:41.189Z,736
2024-04-25T13:57:24.878Z,737
2024-04-25T13:59:08.583Z,736
2024-04-25T14:00:52.286Z,736
2024-04-25T14:02:35.971Z,737
2024-04-25T14:04:19.698Z,737
2024-04-25T14:06:03.378Z,736
2024-04-25T14:07:47.093Z,737
2024-04-25T14:09:30.788Z,735
2024-04-25T14:11:14.490Z,737
2024-04-25T14:12:58.186Z,737
2024-04-25T14:14:41.903Z,737
2024-04-25T14:16:25.601Z,737
2024-04-25T14:18:09.305Z,736
2024-04-25T14:19:52.999Z,737
2024-04-25T14:21:36.710Z,737
2024-04-25T14:23:20.425Z,737
2024-04-25T14:25:04.103Z,736
2024-04-25T14:26:47.816Z,737
2024-04-25T14:28:31.522Z,736
2024-04-25T14:30:15.222Z,737
2024-04-25T14:31:58.921Z,736
2024-04-25T14:33:42.612Z,737
2024-04-25T14:35:26.317Z,736
2024-04-25T14:37:10.033Z,736
2024-04-25T14:38:53.723Z,737
2024-04-25T14:40:37.426Z,736
2024-04-25T14:42:21.140Z,730
2024-04-25T14:44:04.858Z,737
2024-04-25T14:45:48.545Z,737
2024-04-25T14:47:32.243Z,737
2024-04-25T14:49:15.951Z,737
2024-04-25T14:50:59.665Z,737
2024-04-25T14:52:43.353Z,737
2024-04-25T14:54:27.065Z,737
2024-04-25T14:56:10.751Z,736
2024-04-25T14:57:54.456Z,736
2024-04-25T14:59:38.170Z,736
2024-04-25T15:01:21.873Z,737
2024-04-25T15:03:05.589Z,737
2024-04-25T15:04:49.276Z,738
2024-04-25T15:06:32.984Z,736
2024-04-25T15:08:16.687Z,737
2024-04-25T15:10:00.438Z,737
2024-04-25T15:11:44.082Z,737
2024-04-25T15:13:27.793Z,736
2024-04-25T15:15:11.484Z,726
2024-04-25T15:16:55.192Z,736
2024-04-25T15:18:38.931Z,737
2024-04-25T15:20:22.590Z,737
2024-04-25T15:22:06.300Z,736
2024-04-25T15:23:50.000Z,736
2024-04-25T15:25:33.706Z,737
2024-04-25T15:27:17.399Z,737
2024-04-25T15:29:01.117Z,736
2024-04-25T15:30:44.801Z,737
2024-04-25T15:32:28.506Z,737
2024-04-25T15:34:12.210Z,737
2024-04-25T15:35:55.911Z,737
2024-04-25T15:37:39.608Z,737
2024-04-25T15:39:23.321Z,737
2024-04-25T15:41:07.010Z,737
2024-04-25T15:42:50.728Z,737
2024-04-25T15:44:34.434Z,737
2024-04-25T15:46:18.185Z,737
2024-04-25T15:48:01.913Z,737
2024-04-25T15:49:45.572Z,737
2024-04-25T15:51:29.261Z,736
2024-04-25T15:53:12.950Z,737
2024-04-25T15:54:56.650Z,737
2024-04-25T15:56:40.344Z,737
2024-04-25T15:58:24.045Z,737
2024-04-25T16:00:07.752Z,738
2024-04-25T16:01:51.458Z,737
2024-04-25T16:03:35.156Z,737
2024-04-25T16:05:18.865Z,736
2024-04-25T16:07:02.551Z,736
2024-04-25T16:08:46.255Z,738
2024-04-25T16:10:29.970Z,737
2024-04-25T16:12:13.766Z,736
2024-04-25T16:13:57.368Z,736
2024-04-25T16:15:41.056Z,735
2024-04-25T16:17:24.773Z,738
2024-04-25T16:19:08.499Z,738
2024-04-25T16:20:52.189Z,736
2024-04-25T16:22:35.888Z,737
2024-04-25T16:24:19.578Z,736
2024-04-25T16:26:03.275Z,737
2024-04-25T16:27:46.987Z,737
2024-04-25T16:29:30.687Z,737
2024-04-25T16:31:14.451Z,736
2024-04-25T16:32:58.094Z,737
2024-04-25T16:34:41.791Z,737
2024-04-25T16:36:25.499Z,737
2024-04-25T16:38:09.230Z,736
2024-04-25T16:39:52.895Z,737
2024-04-25T16:41:36.608Z,737
2024-04-25T16:43:20.319Z,737
2024-04-25T16:45:04.040Z,737
2024-04-25T16:46:47.712Z,736
2024-04-25T16:48:31.418Z,737
2024-04-25T16:50:15.137Z,737
2024-04-25T16:51:58.840Z,737
2024-04-25T16:53:42.515Z,737
2024-04-25T16:55:26.259Z,718
2024-04-25T16:57:09.937Z,687
2024-04-25T16:58:53.667Z,667
2024-04-25T17:00:37.352Z,642
2024-04-25T17:02:21.045Z,636
2024-04-25T17:04:04.758Z,607
2024-04-25T17:05:48.447Z,588
2024-04-25T17:07:32.161Z,574
2024-04-25T17:09:15.853Z,553
2024-04-25T17:10:59.556Z,526
2024-04-25T17:12:43.263Z,502
2024-04-25T17:14:26.962Z,482
2024-04-25T17:16:10.742Z,471
2024-04-25T17:17:54.378Z,463
2024-04-25T17:19:38.079Z,446
2024-04-25T17:21:21.768Z,416
2024-04-25T17:23:05.477Z,405
2024-04-25T17:24:49.198Z,386
2024-04-25T17:26:32.879Z,362
2024-04-25T17:28:16.577Z,345
2024-04-25T17:30:00.385Z,331
2024-04-25T17:33:27.701Z,327
2024-04-25T17:35:11.396Z,310
2024-04-25T17:36:55.104Z,307
2024-04-25T17:38:38.831Z,293
2024-04-25T17:40:22.758Z,278
2024-04-25T17:42:06.211Z,269
2024-04-25T17:43:49.944Z,257
2024-04-25T17:45:33.619Z,247
2024-04-25T17:47:17.325Z,229
2024-04-25T17:49:01.015Z,217
2024-04-25T17:50:44.715Z,216
2024-04-25T17:52:28.430Z,209
2024-04-25T17:54:12.113Z,202
2024-04-25T17:55:55.841Z,189
2024-04-25T17:57:39.528Z,183
2024-04-25T17:59:23.225Z,193
2024-04-25T18:01:06.921Z,204
2024-04-25T18:02:50.664Z,190
2024-04-25T18:04:34.334Z,157
2024-04-25T18:06:18.056Z,147
2024-04-25T18:08:01.740Z,132
2024-04-25T18:09:45.443Z,129
2024-04-25T18:11:29.148Z,129
2024-04-25T18:13:12.856Z,132
2024-04-25T18:16:40.253Z,126
2024-04-25T18:18:23.950Z,128
2024-04-25T18:20:07.666Z,134
2024-04-25T18:21:51.365Z,133
2024-04-25T18:23:35.058Z,120
2024-04-25T18:25:18.774Z,108
2024-04-25T18:27:02.468Z,90
2024-04-25T18:28:46.167Z,78
2024-04-25T18:30:29.872Z,67
2024-04-25T18:32:13.569Z,61
2024-04-25T18:33:57.268Z,52
2024-04-25T18:35:40.983Z,44
2024-04-25T18:37:24.685Z,40
2024-04-25T18:39:08.389Z,34
2024-04-25T18:40:52.082Z,30
2024-04-25T18:42:35.792Z,26
2024-04-25T18:44:19.515Z,21
2024-04-25T18:46:03.191Z,18
2024-04-25T18:47:46.899Z,14
2024-04-25T18:49:30.589Z,13
2024-04-25T18:51:14.300Z,11
2024-04-25T18:52:58.015Z,9
2024-04-25T18:54:41.700Z,8
2024-04-25T18:56:25.417Z,7
2024-04-25T18:58:09.123Z,6
2024-04-25T18:59:52.818Z,6
2024-04-25T19:01:36.521Z,6
2024-04-25T19:03:20.217Z,5
2024-04-25T19:05:03.962Z,4
2024-04-25T19:06:47.630Z,5
2024-04-25T19:08:31.337Z,4
2024-04-25T19:10:15.032Z,5
2024-04-25T19:11:58.746Z,3
2024-04-25T19:13:42.428Z,3
2024-04-25T19:15:26.129Z,2
2024-04-25T19:17:09.848Z,3
2024-04-25T19:18:53.548Z,5
2024-04-25T19:20:37.246Z,2
2024-04-25T19:22:20.954Z,4
2024-04-25T19:24:04.685Z,4
2024-04-25T19:25:48.361Z,3
2024-04-25T19:27:32.063Z,3
2024-04-25T19:29:15.759Z,5
2024-04-25T19:30:59.470Z,4
2024-04-25T19:32:43.202Z,4
2024-04-25T19:34:26.873Z,3
2024-04-25T19:36:10.558Z,5
2024-04-25T19:37:54.270Z,3
2024-04-25T19:39:37.984Z,11
2024-04-25T19:41:21.687Z,4
2024-04-25T19:43:05.390Z,4
2024-04-25T19:44:49.094Z,4
2024-04-25T19:46:32.788Z,4
2024-04-25T19:48:16.507Z,3
2024-04-25T19:50:00.180Z,6
2024-04-25T19:51:43.882Z,4
2024-04-25T19:53:27.602Z,4
2024-04-25T19:55:11.298Z,5
2024-04-25T19:56:54.990Z,5
2024-04-25T19:58:38.706Z,4
2024-04-25T20:00:22.396Z,6
2024-04-25T20:02:06.103Z,4
2024-04-25T20:03:49.815Z,6
2024-04-25T20:05:33.524Z,6
2024-04-25T20:09:00.919Z,3
2024-04-25T20:10:44.742Z,4
2024-04-25T20:12:28.328Z,3
2024-04-25T20:14:12.023Z,3
2024-04-25T20:15:55.722Z,3
2024-04-25T20:17:39.431Z,3
2024-04-25T20:19:23.140Z,3
2024-04-25T20:21:06.832Z,2
2024-04-25T20:22:50.533Z,4
2024-04-25T20:24:34.270Z,4
2024-04-25T20:26:18.062Z,3
2024-04-25T20:28:01.655Z,3
2024-04-25T20:29:45.362Z,2
2024-04-25T20:31:29.058Z,2
2024-04-25T20:33:12.770Z,3
2024-04-25T20:34:56.470Z,2
2024-04-25T20:36:40.176Z,3
2024-04-25T20:38:23.877Z,3
2024-04-25T20:40:07.622Z,3
2024-04-25T20:41:51.394Z,3
2024-04-25T20:43:35.243Z,3
2024-04-25T20:45:18.977Z,2
2024-04-25T20:47:02.434Z,2
2024-04-25T20:48:46.395Z,2
2024-04-25T20:50:29.786Z,3
2024-04-25T20:52:13.496Z,3
2024-04-25T20:53:57.189Z,2
2024-04-25T20:55:40.890Z,3
2024-04-25T20:57:24.595Z,3
2024-04-25T20:59:08.309Z,3
2024-04-25T21:00:51.997Z,3
2024-04-25T21:02:35.707Z,2
2024-04-25T21:04:19.403Z,3
2024-04-25T21:06:03.108Z,3
2024-04-25T21:07:46.813Z,3
2024-04-25T21:09:30.506Z,3
2024-04-25T21:11:14.211Z,3
2024-04-25T21:12:57.912Z,3
2024-04-25T21:14:41.611Z,2
2024-04-25T21:16:25.324Z,3
2024-04-25T21:18:09.035Z,3
2024-04-25T21:19:52.740Z,2
2024-04-25T21:21:36.434Z,3
2024-04-25T21:23:20.126Z,2
2024-04-25T21:25:03.841Z,6
2024-04-25T21:26:47.529Z,3
2024-04-25T21:28:31.230Z,3
2024-04-25T21:30:14.936Z,3
2024-04-25T21:31:58.648Z,3
2024-04-25T21:33:42.341Z,2
2024-04-25T21:35:26.032Z,2
2024-04-25T21:37:09.763Z,2
2024-04-25T21:38:53.760Z,2
2024-04-25T21:40:37.371Z,3
2024-04-25T21:42:21.248Z,3
2024-04-25T21:44:04.875Z,3
2024-04-25T21:45:48.491Z,2
2024-04-25T21:47:32.037Z,3
2024-04-25T21:49:16.037Z,2
2024-04-25T21:50:59.786Z,3
2024-04-25T21:52:43.294Z,3
2024-04-25T21:54:27.114Z,2
2024-04-25T21:56:10.825Z,3
2024-04-25T21:57:54.182Z,2
2024-04-25T21:59:38.005Z,3
2024-04-25T22:01:21.934Z,2
2024-04-25T22:03:05.654Z,2
2024-04-25T22:04:49.238Z,3
2024-04-25T22:06:32.952Z,3
2024-04-25T22:08:16.774Z,3
2024-04-25T22:10:00.473Z,3
2024-04-25T22:11:44.052Z,2
2024-04-25T22:13:27.890Z,3
2024-04-25T22:15:11.385Z,3
2024-04-25T22:16:55.304Z,3
2024-04-25T22:18:38.962Z,3
2024-04-25T22:20:22.384Z,3
2024-04-25T22:22:06.256Z,2
2024-04-25T22:23:50.095Z,2
2024-04-25T22:25:33.796Z,3
2024-04-25T22:27:17.565Z,3
2024-04-25T22:29:01.317Z,3
2024-04-25T22:30:44.962Z,3
2024-04-25T22:32:28.232Z,2
2024-04-25T22:34:12.103Z,3
2024-04-25T22:35:55.822Z,3
2024-04-25T22:37:39.594Z,2
2024-04-25T22:39:23.029Z,4
2024-04-25T22:41:06.848Z,3
2024-04-25T22:42:50.793Z,2
2024-04-25T22:44:34.160Z,3
2024-04-25T22:46:18.241Z,3
2024-04-25T22:48:01.933Z,3
2024-04-25T22:49:45.276Z,3
2024-04-25T22:51:29.022Z,3
2024-04-25T22:53:12.989Z,3
2024-04-25T22:54:56.679Z,3
2024-04-25T22:56:40.251Z,3
2024-04-25T22:58:23.768Z,2
2024-04-25T23:00:07.855Z,3
2024-04-25T23:01:51.471Z,2
2024-04-25T23:03:34.879Z,3
2024-04-25T23:05:18.698Z,3
2024-04-25T23:07:02.692Z,3
2024-04-25T23:08:46.320Z,2
2024-04-25T23:10:30.001Z,3
2024-04-25T23:12:13.820Z,3
2024-04-25T23:13:57.470Z,1
2024-04-25T23:15:40.784Z,2
2024-04-25T23:17:24.846Z,3
2024-04-25T23:19:08.641Z,2
2024-04-25T23:22:35.948Z,2
2024-04-25T23:24:19.482Z,3
2024-04-25T23:26:03.162Z,3
2024-04-25T23:27:46.969Z,2
2024-04-25T23:29:30.481Z,2
2024-04-25T23:31:14.459Z,3
2024-04-25T23:32:58.190Z,2
2024-04-25T23:34:41.808Z,3
2024-04-25T23:36:25.376Z,3
2024-04-25T23:38:09.300Z,3
2024-04-25T23:39:52.816Z,3
2024-04-25T23:41:36.687Z,4
2024-04-25T23:43:20.417Z,3
2024-04-25T23:45:03.903Z,2
2024-04-25T23:46:47.566Z,3
2024-04-25T23:48:31.539Z,2
2024-04-25T23:50:15.036Z,3
2024-04-25T23:51:58.891Z,3
2024-04-25T23:53:43.036Z,3
2024-04-25T23:55:26.182Z,2
2024-04-25T23:57:09.982Z,3
2024-04-25T23:58:53.707Z,3
